Coldwater, Mississippi
Current Conditions -  °F | °C
As of 11:15 AM on Thursday 27 Nov 2014 (Local Time) from KUTA Reporting Station
Overcast Overcast  
Wind Chill: 37°   Ceiling: 3300
Heat Index: 43°   Visibility: 10mi
Dew Point: 32°   Wind: 12mph
Humidity: 66%   Direction: 320°NW
Pressure: 30.53"   Gusts: 17mph
Location:  34.69°N, 89.98°W
Report Text: KUTA 271715Z AUTO 32010G15KT 10SM OVC033 06/00 A3053 RMK AO2
Loading
Personal Weather Stations






























Interactive Weather Map New forecast layout! Learn more

10-Day Weather Forecast

Advertisements
Track Severe Weather on mobile